createdAt,value
2022-09-28T00:00:33.164Z,2.87
2022-09-28T00:05:48.944Z,2.83
2022-09-28T00:11:19.000Z,5.27
2022-09-28T00:22:19.295Z,3.40
2022-09-28T00:27:42.948Z,4.10
2022-09-28T00:32:59.795Z,4.10
2022-09-28T00:38:16.236Z,3.73
2022-09-28T00:43:38.463Z,4.60
2022-09-28T00:49:07.536Z,8.43
2022-09-28T00:54:17.568Z,7.43
2022-09-28T00:59:27.778Z,5.27
2022-09-28T01:04:52.096Z,5.30
2022-09-28T01:10:23.238Z,6.20
2022-09-28T01:16:18.287Z,7.63
2022-09-28T01:21:55.322Z,5.07
2022-09-28T01:27:15.313Z,9.47
2022-09-28T01:32:52.357Z,4.13
2022-09-28T01:38:06.301Z,6.87
2022-09-28T01:43:38.125Z,5.67
2022-09-28T01:48:56.550Z,5.40
2022-09-28T01:54:22.833Z,4.13
2022-09-28T01:59:33.289Z,4.20
2022-09-28T02:05:30.891Z,3.50
2022-09-28T02:11:22.894Z,3.47
2022-09-28T02:17:06.956Z,3.97
2022-09-28T02:23:01.969Z,3.40
2022-09-28T02:28:21.326Z,3.27
2022-09-28T02:34:04.270Z,5.10
2022-09-28T02:39:21.347Z,3.33
2022-09-28T02:44:46.348Z,4.83
2022-09-28T02:50:25.805Z,6.63
2022-09-28T03:01:57.349Z,4.10
2022-09-28T03:07:22.391Z,4.50
2022-09-28T03:12:46.866Z,4.70
2022-09-28T03:18:13.182Z,5.00
2022-09-28T03:23:30.757Z,7.27
2022-09-28T03:28:52.243Z,4.03
2022-09-28T03:34:09.938Z,4.77
2022-09-28T03:39:20.344Z,8.07
2022-09-28T03:44:30.238Z,6.83
2022-09-28T03:49:33.856Z,7.70
2022-09-28T03:54:37.301Z,7.07
2022-09-28T03:59:40.845Z,5.93
2022-09-28T04:04:52.086Z,5.50
2022-09-28T04:10:30.521Z,7.00
2022-09-28T04:16:02.824Z,5.10
2022-09-28T04:21:23.959Z,5.47
2022-09-28T04:26:53.778Z,5.20
2022-09-28T04:32:15.773Z,7.10
2022-09-28T04:37:52.933Z,9.63
2022-09-28T04:43:13.112Z,4.70
2022-09-28T04:48:32.463Z,4.77
2022-09-28T04:54:05.770Z,4.33
2022-09-28T04:59:16.001Z,3.80
2022-09-28T05:04:39.534Z,5.23
2022-09-28T05:09:44.781Z,6.37
2022-09-28T05:14:47.542Z,3.43
2022-09-28T05:19:51.161Z,5.13
2022-09-28T05:24:55.054Z,6.77
2022-09-28T05:29:59.614Z,4.97
2022-09-28T05:35:21.416Z,10.63
2022-09-28T05:40:27.418Z,11.27
2022-09-28T05:45:30.832Z,5.43
2022-09-28T05:50:33.548Z,5.60
2022-09-28T05:55:37.611Z,4.17
2022-09-28T06:00:40.311Z,5.53
2022-09-28T06:06:08.211Z,5.47
2022-09-28T06:11:39.087Z,7.93
2022-09-28T06:17:31.518Z,6.43
2022-09-28T06:23:23.898Z,8.53
2022-09-28T06:28:36.735Z,8.97
2022-09-28T06:34:03.418Z,7.23
2022-09-28T06:39:15.631Z,8.33
2022-09-28T06:44:24.918Z,6.97
2022-09-28T06:50:03.640Z,10.07
2022-09-28T06:55:33.787Z,10.80
2022-09-28T07:00:40.349Z,6.23
2022-09-28T07:06:06.308Z,8.17
2022-09-28T07:11:17.563Z,11.27
2022-09-28T07:17:13.735Z,13.60
2022-09-28T07:22:43.612Z,13.50
2022-09-28T07:28:04.338Z,11.60
2022-09-28T07:33:48.777Z,10.63
2022-09-28T07:39:08.900Z,10.80
2022-09-28T07:44:19.339Z,12.40
2022-09-28T07:49:29.882Z,9.33
2022-09-28T07:54:52.281Z,7.67
2022-09-28T08:00:21.444Z,7.80
2022-09-28T08:05:48.705Z,5.73
2022-09-28T08:11:21.450Z,7.07
2022-09-28T08:17:11.897Z,7.00
2022-09-28T08:22:43.772Z,6.67
2022-09-28T08:28:07.537Z,7.87
2022-09-28T08:33:42.508Z,6.43
2022-09-28T08:39:23.323Z,5.00
2022-09-28T08:44:58.682Z,3.97
2022-09-28T08:50:27.086Z,2.77
2022-09-28T08:55:55.012Z,3.43
2022-09-28T09:00:59.318Z,2.40
2022-09-28T09:06:33.925Z,4.27
2022-09-28T09:18:39.669Z,2.40
2022-09-28T09:24:27.504Z,2.80
2022-09-28T09:30:18.079Z,4.20
2022-09-28T09:35:31.475Z,4.13
2022-09-28T09:41:28.842Z,6.60
2022-09-28T09:47:43.278Z,3.53
2022-09-28T09:53:21.472Z,4.30
2022-09-28T09:59:00.555Z,3.63
2022-09-28T10:04:48.546Z,2.17
2022-09-28T10:10:29.074Z,1.10
2022-09-28T10:16:12.094Z,1.00
2022-09-28T10:21:24.781Z,2.80
2022-09-28T10:27:10.179Z,2.40
2022-09-28T10:33:07.778Z,4.90
2022-09-28T10:38:18.951Z,2.97
2022-09-28T10:44:17.642Z,2.00
2022-09-28T10:49:46.808Z,1.80
2022-09-28T10:54:55.184Z,2.53
2022-09-28T10:59:59.400Z,3.73
2022-09-28T11:05:11.549Z,5.10
2022-09-28T11:10:32.836Z,11.60
2022-09-28T11:15:45.093Z,3.57
2022-09-28T11:27:38.998Z,1.97
2022-09-28T11:33:05.870Z,2.80
2022-09-28T11:39:04.505Z,3.83
2022-09-28T11:44:59.161Z,3.23
2022-09-28T11:50:24.129Z,3.23
2022-09-28T11:56:27.660Z,2.13
2022-09-28T12:02:10.231Z,1.70
2022-09-28T12:07:50.830Z,2.10
2022-09-28T12:13:44.781Z,3.87
2022-09-28T12:19:28.580Z,2.90
2022-09-28T12:24:40.119Z,2.93
2022-09-28T12:29:48.649Z,2.77
2022-09-28T12:34:51.365Z,2.00
2022-09-28T12:40:09.237Z,2.00
2022-09-28T12:46:06.631Z,3.17
2022-09-28T12:52:02.413Z,1.87
2022-09-28T12:57:49.218Z,2.43
2022-09-28T13:03:44.469Z,2.83
2022-09-28T13:09:31.347Z,2.63
2022-09-28T13:14:56.979Z,5.73
2022-09-28T13:20:05.602Z,3.50
2022-09-28T13:25:21.306Z,3.77
2022-09-28T13:30:25.808Z,3.17
2022-09-28T13:35:29.017Z,5.47
2022-09-28T13:41:44.191Z,4.80
2022-09-28T13:47:26.953Z,3.80
2022-09-28T13:53:08.391Z,3.73
2022-09-28T13:58:57.738Z,4.80
2022-09-28T14:04:36.047Z,4.27
2022-09-28T14:09:47.919Z,3.83
2022-09-28T14:14:52.461Z,3.87
2022-09-28T14:20:06.778Z,6.47
2022-09-28T14:25:26.612Z,10.63
2022-09-28T14:30:38.246Z,5.67
2022-09-28T14:35:58.810Z,3.60
2022-09-28T14:41:45.533Z,5.63
2022-09-28T14:47:43.127Z,4.03
2022-09-28T14:53:13.606Z,4.57
2022-09-28T14:58:45.326Z,4.10
2022-09-28T15:09:36.427Z,4.90
2022-09-28T15:15:02.504Z,5.27
2022-09-28T15:20:43.718Z,5.33
2022-09-28T15:26:08.284Z,3.53
2022-09-28T15:31:39.080Z,4.03
2022-09-28T15:37:23.499Z,3.70
2022-09-28T15:42:59.603Z,3.97
2022-09-28T15:48:50.805Z,4.23
2022-09-28T15:54:29.217Z,4.63
2022-09-28T15:59:39.504Z,3.33
2022-09-28T16:05:05.412Z,5.20
2022-09-28T16:10:35.469Z,5.97
2022-09-28T16:15:53.911Z,6.23
2022-09-28T16:21:32.503Z,6.23
2022-09-28T16:26:55.984Z,7.47
2022-09-28T16:32:46.860Z,10.33
2022-09-28T16:38:20.362Z,5.53
2022-09-28T16:49:16.815Z,6.80
2022-09-28T16:54:44.617Z,4.47
2022-09-28T16:59:47.236Z,8.30
2022-09-28T17:05:04.981Z,4.97
2022-09-28T17:10:17.631Z,6.60
2022-09-28T17:15:20.508Z,6.63
2022-09-28T17:20:29.903Z,6.23
2022-09-28T17:25:32.821Z,8.27
2022-09-28T17:30:35.548Z,6.73
2022-09-28T17:35:39.778Z,7.60
2022-09-28T17:40:45.036Z,13.43
2022-09-28T17:45:59.990Z,8.40
2022-09-28T17:51:23.767Z,9.37
2022-09-28T17:56:32.763Z,5.10
2022-09-28T18:02:04.561Z,20.40
2022-09-28T18:07:14.864Z,32.67
2022-09-28T18:12:30.781Z,18.03
2022-09-28T18:18:00.586Z,14.37
2022-09-28T18:23:08.089Z,22.97
2022-09-28T18:28:25.707Z,10.10
2022-09-28T18:33:32.244Z,10.07
2022-09-28T18:38:44.621Z,11.17
2022-09-28T18:44:05.188Z,9.60
2022-09-28T18:49:09.145Z,10.77
2022-09-28T18:54:19.522Z,9.43
2022-09-28T18:59:29.532Z,9.67
2022-09-28T19:04:54.559Z,9.80
2022-09-28T19:10:06.063Z,9.67
2022-09-28T19:15:12.942Z,15.83
2022-09-28T19:20:16.383Z,13.40
2022-09-28T19:25:19.074Z,11.43
2022-09-28T19:30:21.841Z,10.10
2022-09-28T19:35:27.719Z,9.60
2022-09-28T19:40:30.833Z,9.00
2022-09-28T19:45:36.184Z,9.53
2022-09-28T19:50:39.819Z,10.20
2022-09-28T19:55:42.849Z,13.73
2022-09-28T20:00:45.531Z,14.37
2022-09-28T20:06:13.810Z,17.40
2022-09-28T20:11:46.589Z,26.90
2022-09-28T20:17:09.241Z,17.93
2022-09-28T20:22:27.136Z,14.90
2022-09-28T20:28:03.650Z,15.10
2022-09-28T20:33:28.599Z,12.60
2022-09-28T20:38:58.975Z,10.93
2022-09-28T20:44:14.555Z,11.33
2022-09-28T20:49:24.845Z,9.57
2022-09-28T20:54:36.703Z,12.73
2022-09-28T20:59:40.330Z,8.83
2022-09-28T21:04:50.587Z,13.13
2022-09-28T21:09:53.802Z,11.90
2022-09-28T21:15:05.535Z,9.60
2022-09-28T21:20:09.935Z,9.43
2022-09-28T21:25:12.628Z,8.80
2022-09-28T21:30:15.491Z,11.17
2022-09-28T21:35:18.174Z,10.93
2022-09-28T21:40:21.234Z,8.67
2022-09-28T21:45:27.277Z,9.43
2022-09-28T21:50:31.086Z,8.97
2022-09-28T21:55:33.839Z,9.90
2022-09-28T22:00:36.568Z,10.77
2022-09-28T22:05:48.308Z,10.33
2022-09-28T22:11:31.889Z,12.83
2022-09-28T22:16:46.374Z,8.80
2022-09-28T22:22:19.137Z,11.30
2022-09-28T22:27:37.612Z,10.73
2022-09-28T22:32:55.773Z,12.33
2022-09-28T22:38:17.267Z,11.57
2022-09-28T22:43:34.295Z,10.53
2022-09-28T22:49:00.350Z,11.37
2022-09-28T22:54:14.302Z,11.43
2022-09-28T22:59:22.949Z,8.63
2022-09-28T23:04:40.742Z,9.93
2022-09-28T23:09:44.309Z,11.23
2022-09-28T23:14:46.998Z,13.07
2022-09-28T23:19:49.691Z,11.57
2022-09-28T23:24:52.585Z,22.07
2022-09-28T23:29:55.291Z,12.37
2022-09-28T23:34:58.021Z,12.70
2022-09-28T23:40:00.892Z,15.00
2022-09-28T23:45:03.760Z,16.30
2022-09-28T23:50:07.091Z,11.63
2022-09-28T23:55:09.934Z,12.17
